Time;durP1;ratioP1;P1;durP2;ratioP2;P2;SDS_P1;SDS_P2;PMS_P1;PMS_P2;Temp;Humidity;BMP_temperature;BMP_pressure;BME280_temperature;BME280_humidity;BME280_pressure;Samples;Min_cycle;Max_cycle;Signal;HPM_P1;HPM_P2
2023/07/16 00:00:56;;;;;;;10.63;2.70;;;;;;;14.72;100.00;100776.44;4932788;29;20102;-89
2023/07/16 00:03:21;;;;;;;10.48;2.50;;;;;;;14.71;100.00;100785.63;4934553;29;20024;-89
2023/07/16 00:05:50;;;;;;;6.90;2.20;;;;;;;14.62;100.00;100791.59;4933775;29;20035;-90
2023/07/16 00:08:15;;;;;;;8.38;3.05;;;;;;;14.49;100.00;100776.94;4934176;29;20028;-89
2023/07/16 00:10:40;;;;;;;12.17;3.30;;;;;;;14.57;100.00;100791.69;4933654;29;20083;-89
2023/07/16 00:13:06;;;;;;;9.40;3.40;;;;;;;14.46;100.00;100773.97;4934603;29;20435;-89
2023/07/16 00:15:31;;;;;;;7.40;3.20;;;;;;;14.55;100.00;100783.06;4945047;29;20020;-90
2023/07/16 00:17:57;;;;;;;6.93;3.20;;;;;;;14.60;100.00;100795.69;4943165;29;20503;-89
2023/07/16 00:20:25;;;;;;;10.03;3.27;;;;;;;14.51;100.00;100792.81;4934529;29;20040;-89
2023/07/16 00:22:51;;;;;;;7.70;3.95;;;;;;;14.47;100.00;100808.75;4953406;29;20012;-89
2023/07/16 00:25:17;;;;;;;14.13;3.83;;;;;;;14.18;100.00;100766.41;4936034;29;20369;-89
2023/07/16 00:27:42;;;;;;;8.68;3.53;;;;;;;14.31;100.00;100778.44;4935003;29;20028;-89
2023/07/16 00:30:08;;;;;;;10.27;3.43;;;;;;;14.46;100.00;100801.75;4936896;29;20471;-89
2023/07/16 00:32:34;;;;;;;6.40;2.90;;;;;;;14.56;100.00;100800.03;4940403;29;20059;-89
2023/07/16 00:35:01;;;;;;;7.87;2.90;;;;;;;14.56;100.00;100800.84;4939937;29;20040;-89
2023/07/16 00:37:27;;;;;;;7.95;3.00;;;;;;;14.59;100.00;100805.69;4936792;29;20031;-89
2023/07/16 00:39:52;;;;;;;7.95;2.45;;;;;;;14.51;100.00;100788.22;4937042;29;20039;-89
2023/07/16 00:42:18;;;;;;;9.87;2.47;;;;;;;14.46;100.00;100784.75;4937591;29;20035;-89
2023/07/16 00:44:43;;;;;;;7.10;2.67;;;;;;;14.60;100.00;100796.50;4936859;29;20051;-89
2023/07/16 00:47:09;;;;;;;7.13;2.40;;;;;;;14.57;100.00;100786.28;4937066;29;20047;-89
2023/07/16 00:49:35;;;;;;;10.73;2.63;;;;;;;14.75;100.00;100806.34;4936641;29;20063;-90
2023/07/16 00:52:01;;;;;;;7.90;3.00;;;;;;;14.69;100.00;100805.59;4937325;29;20311;-90
2023/07/16 00:54:29;;;;;;;7.72;2.88;;;;;;;14.66;100.00;100797.25;4936866;29;20039;-89
2023/07/16 00:56:55;;;;;;;10.70;2.83;;;;;;;14.69;100.00;100799.41;4937024;29;20019;-90
2023/07/16 00:59:20;;;;;;;6.13;2.83;;;;;;;14.62;100.00;100797.00;4936516;29;20032;-89
2023/07/16 01:01:46;;;;;;;7.70;2.85;;;;;;;14.62;100.00;100799.69;4937235;29;20123;-90
2023/07/16 01:04:11;;;;;;;10.83;3.17;;;;;;;14.49;100.00;100795.81;4936613;29;20027;-89
2023/07/16 01:06:41;;;;;;;6.90;2.87;;;;;;;14.45;100.00;100799.31;4936846;29;20023;-89
2023/07/16 01:09:17;;;;;;;11.27;3.40;;;;;;;14.31;100.00;100800.00;4936608;28;20024;-89
2023/07/16 01:11:44;;;;;;;8.52;3.08;;;;;;;14.35;100.00;100802.91;4936559;29;20122;-89
2023/07/16 01:14:10;;;;;;;8.13;3.25;;;;;;;14.41;100.00;100809.09;4936354;29;20063;-89
2023/07/16 01:16:35;;;;;;;12.38;3.40;;;;;;;14.34;100.00;100804.81;4935523;29;20027;-89
2023/07/16 01:19:01;;;;;;;7.93;3.23;;;;;;;14.32;100.00;100812.38;4935738;29;20031;-89
2023/07/16 01:21:33;;;;;;;8.10;3.28;;;;;;;14.32;100.00;100809.69;4935648;29;20047;-89
2023/07/16 01:24:10;;;;;;;6.43;3.20;;;;;;;14.31;100.00;100807.28;4935499;29;20063;-89
2023/07/16 01:26:57;;;;;;;8.27;3.08;;;;;;;14.23;100.00;100787.94;4935538;29;20090;-89
2023/07/16 01:29:32;;;;;;;11.98;3.45;;;;;;;14.23;100.00;100795.25;4935395;29;20035;-89
2023/07/16 01:32:01;;;;;;;7.07;3.13;;;;;;;14.26;100.00;100791.94;4935360;29;20027;-90
2023/07/16 01:34:30;;;;;;;9.63;3.20;;;;;;;14.15;100.00;100775.06;4937911;29;20024;-87
2023/07/16 01:36:55;;;;;;;10.18;3.20;;;;;;;14.31;100.00;100791.13;4951529;29;20438;-90
2023/07/16 01:39:21;;;;;;;7.90;3.20;;;;;;;14.39;100.00;100802.09;4934789;29;20028;-90
2023/07/16 01:41:46;;;;;;;7.63;2.83;;;;;;;14.35;100.00;100792.97;4944582;29;20031;-89
2023/07/16 01:44:12;;;;;;;7.80;3.17;;;;;;;14.36;100.00;100796.44;4944160;29;20032;-89
2023/07/16 01:46:37;;;;;;;7.03;2.70;;;;;;;14.24;100.00;100783.38;4933686;29;20083;-89
2023/07/16 01:49:02;;;;;;;12.57;3.07;;;;;;;14.15;100.00;100785.84;4934978;29;20031;-89
2023/07/16 01:51:28;;;;;;;8.73;3.25;;;;;;;14.26;100.00;100796.56;4935127;29;20027;-89
2023/07/16 01:53:53;;;;;;;9.80;3.43;;;;;;;14.13;100.00;100787.22;4934922;29;20035;-89
2023/07/16 01:56:19;;;;;;;9.17;3.70;;;;;;;14.19;100.00;100800.38;4934483;29;20420;-89
2023/07/16 01:58:44;;;;;;;13.10;3.47;;;;;;;14.19;100.00;100800.38;4934581;29;20430;-89
2023/07/16 02:01:09;;;;;;;8.40;3.53;;;;;;;14.13;100.00;100792.63;4934705;29;20040;-89
2023/07/16 02:03:34;;;;;;;6.60;3.83;;;;;;;14.14;100.00;100783.44;4935107;29;20303;-89
2023/07/16 02:06:00;;;;;;;9.73;3.20;;;;;;;14.23;100.00;100797.94;4937142;29;20389;-89
2023/07/16 02:08:25;;;;;;;9.10;3.07;;;;;;;14.11;100.00;100774.03;4936431;29;20025;-89
2023/07/16 02:10:51;;;;;;;8.37;3.33;;;;;;;14.24;100.00;100791.47;4934701;29;20119;-89
2023/07/16 02:13:16;;;;;;;9.45;3.50;;;;;;;14.32;100.00;100804.31;4933714;29;20032;-89
2023/07/16 02:15:43;;;;;;;10.07;3.30;;;;;;;14.27;100.00;100798.94;4933082;29;20027;-89
2023/07/16 02:18:08;;;;;;;9.70;3.22;;;;;;;14.17;100.00;100783.69;4934330;29;20034;-89
2023/07/16 02:20:33;;;;;;;9.20;3.13;;;;;;;14.26;100.00;100802.72;4934342;29;20032;-89
2023/07/16 02:22:59;;;;;;;7.40;3.20;;;;;;;14.28;100.00;100794.38;4934352;29;20124;-89
2023/07/16 02:25:25;;;;;;;7.90;3.23;;;;;;;14.18;100.00;100781.81;4934522;29;20059;-89
2023/07/16 02:27:50;;;;;;;7.25;3.00;;;;;;;14.24;100.00;100794.16;4933748;29;20052;-89
2023/07/16 02:30:16;;;;;;;11.65;3.22;;;;;;;14.29;100.00;100809.47;4934324;29;20039;-89
2023/07/16 02:32:41;;;;;;;11.40;3.77;;;;;;;14.29;100.00;100801.38;4934253;29;20059;-89
2023/07/16 02:35:07;;;;;;;11.07;3.40;;;;;;;14.32;100.00;100825.06;4934307;29;20074;-90
2023/07/16 02:37:32;;;;;;;8.38;3.05;;;;;;;14.26;100.00;100826.19;4933541;29;20588;-89
2023/07/16 02:39:58;;;;;;;14.07;3.93;;;;;;;14.28;100.00;100813.25;4934188;29;20115;-89
2023/07/16 02:42:24;;;;;;;6.97;3.60;;;;;;;14.26;100.00;100818.91;4933908;29;20038;-89
2023/07/16 02:44:49;;;;;;;9.37;3.67;;;;;;;14.26;100.00;100826.19;4934063;29;20432;-89
2023/07/16 02:47:15;;;;;;;12.27;3.60;;;;;;;14.23;100.00;100833.75;4933336;29;20036;-89
2023/07/16 02:49:40;;;;;;;7.57;3.58;;;;;;;14.08;100.00;100810.41;4934217;29;20030;-89
2023/07/16 02:52:06;;;;;;;12.67;3.63;;;;;;;14.15;100.00;100831.66;4933848;29;20034;-89
2023/07/16 02:54:32;;;;;;;11.20;3.40;;;;;;;14.12;100.00;100832.25;4935577;29;20032;-88
2023/07/16 02:56:58;;;;;;;10.73;3.53;;;;;;;14.11;100.00;100824.41;4944521;29;20454;-90
2023/07/16 02:59:23;;;;;;;14.50;3.67;;;;;;;14.05;100.00;100823.66;4933941;29;20044;-89
2023/07/16 03:01:51;;;;;;;8.53;3.67;;;;;;;14.13;100.00;100835.72;4939243;29;20039;-89
2023/07/16 03:04:16;;;;;;;9.13;3.40;;;;;;;14.06;100.00;100830.66;4936743;29;20035;-88
2023/07/16 03:06:41;;;;;;;11.67;3.60;;;;;;;14.01;100.00;100828.00;4933536;29;20027;-89
2023/07/16 03:09:06;;;;;;;9.90;3.63;;;;;;;13.87;100.00;100812.47;4933850;29;20276;-89
2023/07/16 03:11:32;;;;;;;11.70;3.87;;;;;;;13.90;100.00;100824.56;4933509;29;20039;-89
2023/07/16 03:13:57;;;;;;;11.87;3.70;;;;;;;13.92;100.00;100831.31;4933652;29;20028;-90
2023/07/16 03:16:22;;;;;;;11.33;3.73;;;;;;;13.88;100.00;100832.13;4933163;29;20035;-89
2023/07/16 03:18:48;;;;;;;9.65;3.65;;;;;;;13.90;100.00;100844.25;4934438;29;20043;-89
2023/07/16 03:21:13;;;;;;;10.37;3.77;;;;;;;13.94;100.00;100855.25;4933901;29;20047;-89
2023/07/16 03:23:38;;;;;;;10.10;3.40;;;;;;;13.81;100.00;100848.59;4934172;29;20019;-89
2023/07/16 03:26:04;;;;;;;12.17;3.70;;;;;;;13.83;100.00;100848.34;4933422;29;20498;-89
2023/07/16 03:28:29;;;;;;;10.00;3.57;;;;;;;13.71;100.00;100852.16;4934391;29;20076;-89
2023/07/16 03:30:55;;;;;;;8.60;4.05;;;;;;;13.68;100.00;100850.03;4934189;29;20491;-89
2023/07/16 03:33:20;;;;;;;10.83;3.87;;;;;;;13.66;100.00;100849.50;4934732;29;20040;-89
2023/07/16 03:35:47;;;;;;;10.70;3.83;;;;;;;13.62;100.00;100865.41;4933638;29;20035;-89
2023/07/16 03:38:14;;;;;;;12.38;4.03;;;;;;;13.55;100.00;100854.16;4933892;29;20034;-89
2023/07/16 03:40:39;;;;;;;10.05;3.97;;;;;;;13.53;100.00;100855.47;4933310;29;20038;-89
2023/07/16 03:43:05;;;;;;;13.33;4.00;;;;;;;13.42;100.00;100858.25;4933495;29;20036;-88
2023/07/16 03:45:30;;;;;;;12.77;4.13;;;;;;;13.31;100.00;100849.38;4933140;29;20043;-89
2023/07/16 03:47:55;;;;;;;14.13;4.70;;;;;;;13.32;100.00;100844.81;4934448;29;20020;-89
2023/07/16 03:50:21;;;;;;;13.53;4.23;;;;;;;13.44;100.00;100874.09;4934428;29;20032;-89
2023/07/16 03:52:46;;;;;;;14.00;3.93;;;;;;;13.35;100.00;100856.91;4933785;29;20032;-89
2023/07/16 03:55:12;;;;;;;10.40;4.20;;;;;;;13.28;100.00;100866.06;4933077;29;20031;-89
2023/07/16 03:57:38;;;;;;;10.80;3.47;;;;;;;13.27;100.00;100860.97;4932900;29;20039;-89
2023/07/16 04:00:06;;;;;;;11.18;3.53;;;;;;;13.28;100.00;100871.44;4932937;29;20036;-89
2023/07/16 04:02:32;;;;;;;9.48;3.53;;;;;;;13.28;100.00;100867.97;4934435;29;20113;-89
2023/07/16 04:04:57;;;;;;;8.77;3.17;;;;;;;13.22;100.00;100880.63;4936768;29;20039;-88
2023/07/16 04:07:22;;;;;;;12.90;3.80;;;;;;;13.35;100.00;100889.97;4936752;29;20042;-89
2023/07/16 04:09:48;;;;;;;9.97;3.70;;;;;;;13.39;100.00;100896.44;4936554;29;20027;-89
2023/07/16 04:12:13;;;;;;;11.18;3.92;;;;;;;13.41;100.00;100894.31;4935765;29;20407;-88
2023/07/16 04:14:38;;;;;;;9.30;3.63;;;;;;;13.39;100.00;100890.25;4937001;29;20090;-88
2023/07/16 04:17:04;;;;;;;10.60;4.10;;;;;;;13.37;100.00;100900.50;4947918;29;20038;-88
2023/07/16 04:19:29;;;;;;;10.60;3.72;;;;;;;13.37;100.00;100903.97;4937751;29;20621;-88
2023/07/16 04:21:55;;;;;;;11.00;3.80;;;;;;;13.44;100.00;100911.78;4941099;29;20027;-89
2023/07/16 04:24:20;;;;;;;9.67;3.83;;;;;;;13.46;100.00;100921.22;4943439;29;20035;-89
2023/07/16 04:26:45;;;;;;;11.37;4.23;;;;;;;13.55;100.00;100926.81;4938268;29;20396;-88
2023/07/16 04:29:11;;;;;;;11.20;4.47;;;;;;;13.54;100.00;100927.91;4938918;29;20388;-89
2023/07/16 04:31:36;;;;;;;9.07;4.20;;;;;;;13.58;100.00;100928.97;4938814;29;20050;-88
2023/07/16 04:34:01;;;;;;;10.17;4.13;;;;;;;13.59;100.00;100935.16;4936441;29;20102;-89
2023/07/16 04:36:27;;;;;;;14.83;4.37;;;;;;;13.56;100.00;100930.31;4935093;29;20058;-88
2023/07/16 04:38:52;;;;;;;10.00;4.43;;;;;;;13.56;100.00;100925.75;4936115;29;20430;-88
2023/07/16 04:41:17;;;;;;;12.53;4.37;;;;;;;13.61;100.00;100943.75;4935317;28;20024;-88
2023/07/16 04:43:43;;;;;;;9.57;4.45;;;;;;;13.64;100.00;100937.84;4936352;29;20379;-88
2023/07/16 04:46:08;;;;;;;8.83;4.43;;;;;;;13.66;100.00;100940.25;4936037;29;20031;-88
2023/07/16 04:48:33;;;;;;;12.30;4.80;;;;;;;13.70;100.00;100934.03;4934803;29;20027;-89
2023/07/16 04:50:59;;;;;;;11.40;4.70;;;;;;;13.80;100.00;100941.25;4936185;29;20051;-89
2023/07/16 04:53:24;;;;;;;9.97;4.53;;;;;;;13.99;100.00;100954.91;4936019;29;20057;-89
2023/07/16 04:55:50;;;;;;;15.80;5.00;;;;;;;13.94;100.00;100944.16;4935981;29;20276;-88
2023/07/16 04:58:16;;;;;;;16.23;4.57;;;;;;;14.04;100.00;100968.34;4935784;29;20035;-89
2023/07/16 05:00:41;;;;;;;14.63;4.22;;;;;;;14.25;100.00;100957.44;4936504;29;20023;-88
2023/07/16 05:03:07;;;;;;;13.63;4.80;;;;;;;15.27;100.00;100971.19;4935839;29;20031;-89
2023/07/16 05:05:32;;;;;;;10.27;4.03;;;;;;;16.24;100.00;100973.03;4936033;29;20068;-88
2023/07/16 05:07:58;;;;;;;10.77;4.20;;;;;;;16.93;100.00;100969.75;4935561;29;20019;-88
2023/07/16 05:10:24;;;;;;;11.70;4.20;;;;;;;17.37;100.00;100948.69;4935750;29;20179;-89
2023/07/16 05:12:49;;;;;;;10.68;4.28;;;;;;;17.80;100.00;100963.00;4935798;29;20028;-89
2023/07/16 05:15:15;;;;;;;9.10;3.40;;;;;;;18.16;100.00;100975.81;4936208;29;20114;-89
2023/07/16 05:17:40;;;;;;;13.15;4.40;;;;;;;18.49;100.00;100967.47;4935103;29;20495;-89
2023/07/16 05:20:06;;;;;;;10.33;4.50;;;;;;;18.43;95.87;100961.34;4936017;29;20059;-89
2023/07/16 05:22:32;;;;;;;14.82;4.13;;;;;;;18.75;97.01;100981.22;4935575;29;20503;-88
2023/07/16 05:24:58;;;;;;;10.63;4.18;;;;;;;19.19;97.03;100981.47;4935574;29;20024;-89
2023/07/16 05:27:23;;;;;;;12.13;4.10;;;;;;;19.59;91.25;100990.72;4934804;29;20028;-89
2023/07/16 05:29:48;;;;;;;7.83;4.03;;;;;;;19.93;88.93;100978.38;4935651;29;20024;-89
2023/07/16 05:32:14;;;;;;;9.80;4.10;;;;;;;20.06;86.72;100987.50;4935494;29;20290;-88
2023/07/16 05:34:39;;;;;;;10.33;3.90;;;;;;;20.18;85.92;100978.72;4935917;29;20024;-89
2023/07/16 05:37:05;;;;;;;10.93;4.03;;;;;;;20.25;82.60;100987.22;4949893;29;20054;-89
2023/07/16 05:39:30;;;;;;;10.75;4.03;;;;;;;20.41;83.68;100982.88;4942251;29;20136;-90
2023/07/16 05:41:56;;;;;;;9.97;4.10;;;;;;;20.50;79.46;100974.72;4938390;29;20099;-89
2023/07/16 05:44:21;;;;;;;11.17;4.00;;;;;;;20.68;82.47;100980.13;4953276;29;20024;-89
2023/07/16 05:46:46;;;;;;;13.50;3.50;;;;;;;21.15;77.71;101003.91;4935388;29;20063;-89
2023/07/16 05:49:12;;;;;;;14.05;4.40;;;;;;;20.98;78.11;100989.22;4935552;29;20091;-89
2023/07/16 05:51:37;;;;;;;9.40;4.13;;;;;;;20.94;76.17;101001.06;4935250;29;20023;-90
2023/07/16 05:54:02;;;;;;;13.43;4.40;;;;;;;20.57;78.00;100976.94;4935342;29;20031;-89
2023/07/16 05:56:28;;;;;;;8.43;4.30;;;;;;;20.53;77.47;100992.31;4934786;29;20163;-89
2023/07/16 05:58:53;;;;;;;11.00;4.10;;;;;;;20.31;78.82;100985.13;4935417;29;20028;-89
2023/07/16 06:01:18;;;;;;;13.17;4.10;;;;;;;20.08;77.96;100990.72;4934913;29;20039;-90
2023/07/16 06:03:44;;;;;;;8.53;4.33;;;;;;;19.85;82.08;101017.19;4934019;29;20034;-89
2023/07/16 06:06:09;;;;;;;7.73;4.00;;;;;;;19.62;84.43;101011.84;4934515;29;20038;-89
2023/07/16 06:08:35;;;;;;;13.67;4.30;;;;;;;19.41;82.84;101015.13;4935012;29;20372;-89
2023/07/16 06:11:00;;;;;;;12.63;4.35;;;;;;;19.09;82.07;101018.97;4934842;29;20036;-90
2023/07/16 06:13:25;;;;;;;11.33;4.37;;;;;;;18.62;86.64;101009.22;4935227;29;20032;-91
2023/07/16 06:15:51;;;;;;;13.33;4.60;;;;;;;18.54;88.48;101018.91;4934617;29;20027;-92
2023/07/16 06:18:16;;;;;;;10.43;4.78;;;;;;;18.36;90.08;101020.66;4935347;29;20053;-91
2023/07/16 06:20:45;;;;;;;11.83;4.57;;;;;;;18.16;89.23;101013.78;4934815;29;20119;-92
2023/07/16 06:23:12;;;;;;;11.18;4.70;;;;;;;18.00;91.12;101016.81;4933843;29;20031;-92
2023/07/16 06:25:37;;;;;;;15.93;4.80;;;;;;;17.83;92.16;101013.91;4934018;29;20039;-92
2023/07/16 06:28:03;;;;;;;12.83;5.27;;;;;;;17.80;93.34;101015.28;4933760;29;20276;-92
2023/07/16 06:30:30;;;;;;;8.68;4.65;;;;;;;17.74;94.31;101015.69;4934835;29;20027;-92
2023/07/16 06:32:56;;;;;;;12.17;5.10;;;;;;;17.80;92.40;101026.13;4933843;29;20509;-92
2023/07/16 06:35:21;;;;;;;11.70;5.23;;;;;;;17.82;95.03;101026.63;4934523;29;20288;-92
2023/07/16 06:37:47;;;;;;;16.17;5.10;;;;;;;17.78;93.63;101032.97;4934805;29;20079;-92
2023/07/16 06:40:12;;;;;;;11.45;5.20;;;;;;;17.88;93.60;101046.34;4938454;29;20432;-92
2023/07/16 06:42:38;;;;;;;11.70;4.90;;;;;;;17.73;93.00;101023.03;4938291;29;20071;-92
2023/07/16 06:45:03;;;;;;;9.50;4.60;;;;;;;17.71;95.80;101028.75;4936948;29;20429;-93
2023/07/16 06:47:29;;;;;;;12.95;5.22;;;;;;;17.85;93.93;101041.50;4936465;29;20038;-92
2023/07/16 06:49:54;;;;;;;13.77;5.17;;;;;;;17.94;94.75;101053.25;4935183;29;20035;-93
2023/07/16 06:52:21;;;;;;;8.03;4.50;;;;;;;17.93;94.74;101029.16;4934962;29;20023;-93
2023/07/16 06:54:47;;;;;;;9.55;4.95;;;;;;;17.90;92.55;101025.13;4934441;29;20032;-92
2023/07/16 06:57:13;;;;;;;10.90;5.40;;;;;;;17.83;92.11;101024.75;4941818;29;20097;-92
2023/07/16 06:59:38;;;;;;;15.07;5.23;;;;;;;17.88;92.40;101032.78;4950973;29;20130;-94
2023/07/16 07:02:03;;;;;;;14.20;5.40;;;;;;;17.92;93.55;101041.09;4935768;29;20399;-92
2023/07/16 07:04:29;;;;;;;9.77;5.40;;;;;;;17.88;90.46;101032.78;4949379;28;20016;-94
2023/07/16 07:06:54;;;;;;;12.00;5.20;;;;;;;17.82;92.33;101045.59;4947039;29;20063;-93
2023/07/16 07:09:20;;;;;;;12.80;5.87;;;;;;;18.03;90.55;101066.13;4934832;29;20039;-92
2023/07/16 07:11:45;;;;;;;13.25;5.35;;;;;;;17.94;91.14;101045.09;4935772;29;20063;-93
2023/07/16 07:14:10;;;;;;;10.90;5.87;;;;;;;18.06;90.09;101055.47;4935930;29;20061;-93
2023/07/16 07:16:36;;;;;;;13.70;5.30;;;;;;;18.06;91.78;101039.22;4935592;29;20496;-93
2023/07/16 07:19:02;;;;;;;11.87;6.20;;;;;;;18.31;91.00;101070.41;4935346;29;20140;-93
2023/07/16 07:21:27;;;;;;;13.13;5.28;;;;;;;18.47;91.51;101061.91;4935689;29;20027;-94
2023/07/16 07:23:53;;;;;;;14.33;5.53;;;;;;;18.63;89.37;101084.09;4934964;29;20036;-93
2023/07/16 07:26:18;;;;;;;12.48;5.50;;;;;;;18.55;87.90;101055.78;4933913;29;20034;-93
2023/07/16 07:28:44;;;;;;;17.30;5.40;;;;;;;18.75;87.51;101070.00;4935631;29;20024;-93
2023/07/16 07:31:09;;;;;;;12.80;5.20;;;;;;;18.74;88.75;101046.66;4934982;29;20060;-93
2023/07/16 07:33:34;;;;;;;12.03;5.70;;;;;;;19.01;87.51;101069.38;4934461;29;20031;-94
2023/07/16 07:36:00;;;;;;;12.00;5.03;;;;;;;19.21;86.22;101063.44;4934206;29;20095;-94
2023/07/16 07:38:25;;;;;;;15.27;5.60;;;;;;;19.50;84.80;101070.31;4936409;29;20472;-94
2023/07/16 07:40:51;;;;;;;11.73;5.23;;;;;;;19.71;84.83;101069.78;4938560;29;20050;-94
2023/07/16 07:43:17;;;;;;;14.98;5.45;;;;;;;19.80;83.10;101051.56;4939044;29;20136;-94
2023/07/16 07:45:43;;;;;;;15.57;5.45;;;;;;;19.94;80.35;101062.38;4938620;29;20059;-94
2023/07/16 07:48:09;;;;;;;10.30;5.70;;;;;;;19.80;78.48;101062.44;4942945;29;20024;-94
2023/07/16 07:50:34;;;;;;;10.15;5.18;;;;;;;19.81;80.38;101074.91;4938809;29;20484;-94
2023/07/16 07:52:59;;;;;;;9.40;5.30;;;;;;;20.04;80.98;101098.53;4939264;29;20024;-93
2023/07/16 07:55:25;;;;;;;14.67;5.53;;;;;;;19.76;79.50;101077.00;4940096;29;20050;-95
2023/07/16 07:57:50;;;;;;;13.43;5.53;;;;;;;19.94;80.78;101107.78;4938629;29;20115;-95
2023/07/16 08:00:16;;;;;;;17.33;5.93;;;;;;;19.88;80.78;101106.34;4938902;29;20403;-94
2023/07/16 08:02:41;;;;;;;8.57;4.90;;;;;;;19.49;79.47;101070.63;4941017;29;20024;-94
2023/07/16 08:05:07;;;;;;;10.63;5.30;;;;;;;19.42;81.92;101100.97;4940574;29;20023;-96
2023/07/16 08:07:34;;;;;;;11.38;5.13;;;;;;;19.42;81.49;101111.03;4940365;29;20079;-95
2023/07/16 08:10:00;;;;;;;13.87;5.10;;;;;;;19.40;81.45;101086.88;4946339;29;20428;-94
2023/07/16 08:12:25;;;;;;;15.18;5.45;;;;;;;19.35;83.88;101057.94;4942141;29;20027;-95
2023/07/16 08:14:50;;;;;;;12.53;5.20;;;;;;;19.60;80.11;101057.56;4943586;29;20028;-95
2023/07/16 08:17:16;;;;;;;7.80;5.27;;;;;;;19.62;79.89;101053.44;4943211;29;20603;-94
2023/07/16 08:19:41;;;;;;;11.17;5.43;;;;;;;20.21;80.38;101104.00;4961551;29;20015;-94
2023/07/16 08:22:07;;;;;;;10.25;4.82;;;;;;;20.08;78.46;101073.13;4949368;29;20407;-95
2023/07/16 08:24:32;;;;;;;8.10;4.73;;;;;;;19.89;77.76;101086.97;4952578;29;20019;-95
2023/07/16 08:26:58;;;;;;;13.07;5.10;;;;;;;19.97;77.87;101099.00;4955610;29;20071;-95
2023/07/16 08:29:23;;;;;;;10.37;4.97;;;;;;;19.94;78.35;101092.28;4944202;29;20066;-95
2023/07/16 08:31:49;;;;;;;15.13;5.20;;;;;;;19.97;79.64;101071.78;4942742;29;20307;-96
2023/07/16 08:34:14;;;;;;;10.70;5.23;;;;;;;20.39;77.28;101099.41;4941749;29;20023;-95
2023/07/16 08:36:39;;;;;;;12.00;5.38;;;;;;;20.61;77.95;101100.41;4939422;29;20034;-96
2023/07/16 08:39:05;;;;;;;9.70;4.63;;;;;;;20.79;74.58;101078.66;4939053;29;20546;-95
2023/07/16 08:41:31;;;;;;;11.57;4.70;;;;;;;20.92;73.53;101063.25;4938731;29;20058;-95
2023/07/16 08:43:57;;;;;;;12.23;4.68;;;;;;;21.17;70.00;101080.69;4939885;28;20123;-96
2023/07/16 08:46:23;;;;;;;11.10;4.63;;;;;;;21.88;70.20;101122.97;4938640;29;20028;-95
2023/07/16 08:48:48;;;;;;;7.68;4.45;;;;;;;22.12;67.20;101104.41;4941370;29;20027;-95
2023/07/16 08:51:15;;;;;;;7.07;4.82;;;;;;;22.32;67.25;101127.38;4941782;29;20071;-96
2023/07/16 08:53:41;;;;;;;8.40;5.10;;;;;;;22.41;67.88;101127.31;4938814;29;20039;-95
2023/07/16 08:56:06;;;;;;;12.33;4.70;;;;;;;22.46;64.84;101111.56;4937204;29;20028;-95
2023/07/16 08:58:32;;;;;;;10.33;4.53;;;;;;;22.51;65.38;101105.13;4939546;29;20031;-96
2023/07/16 09:01:00;;;;;;;10.38;4.43;;;;;;;22.74;62.81;101121.97;4940077;29;20028;-96
2023/07/16 09:03:26;;;;;;;10.43;4.60;;;;;;;22.70;62.92;101110.13;4938992;29;20024;-96
2023/07/16 09:05:51;;;;;;;10.85;4.25;;;;;;;22.61;62.93;101098.47;4938892;29;20083;-95
2023/07/16 09:08:16;;;;;;;8.57;4.03;;;;;;;22.72;62.52;101129.69;4938953;29;20027;-95
2023/07/16 09:10:43;;;;;;;8.33;4.60;;;;;;;22.74;62.30;101135.63;4938210;28;20047;-96
2023/07/16 09:13:08;;;;;;;10.43;4.88;;;;;;;22.91;62.03;101134.69;4939031;29;20031;-96
2023/07/16 09:15:34;;;;;;;8.73;4.15;;;;;;;23.10;60.59;101136.94;4945060;29;20028;-95
2023/07/16 09:18:00;;;;;;;7.80;4.37;;;;;;;23.56;61.85;101139.72;4952537;29;20076;-95
2023/07/16 09:20:27;;;;;;;8.65;4.55;;;;;;;23.88;57.54;101145.44;4957063;29;20091;-95
2023/07/16 09:22:58;;;;;;;8.02;3.92;;;;;;;24.05;58.15;101119.00;4948436;29;20031;-94
2023/07/16 09:25:31;;;;;;;8.38;3.90;;;;;;;24.74;56.49;101132.03;4942090;29;20055;-95
2023/07/16 09:28:00;;;;;;;7.53;4.15;;;;;;;24.62;53.13;101150.09;4942772;29;20027;-95
2023/07/16 09:30:31;;;;;;;8.63;3.93;;;;;;;24.24;55.30;101137.59;4945427;29;20020;-96
2023/07/16 09:32:57;;;;;;;5.80;3.90;;;;;;;23.80;55.93;101124.47;4944674;29;20275;-95
2023/07/16 09:35:23;;;;;;;13.00;4.85;;;;;;;23.75;56.11;101130.16;4952436;29;20579;-96
2023/07/16 09:37:50;;;;;;;8.77;4.35;;;;;;;23.60;56.08;101115.19;4948162;29;20035;-96
2023/07/16 09:40:16;;;;;;;6.97;3.90;;;;;;;23.57;56.44;101126.81;4944756;29;20012;-96
2023/07/16 09:42:43;;;;;;;8.53;3.73;;;;;;;23.75;53.98;101158.28;4946902;29;20789;-96
2023/07/16 09:45:18;;;;;;;8.75;4.22;;;;;;;23.88;55.85;101148.16;4949832;29;20309;-96
2023/07/16 09:47:43;;;;;;;8.57;4.20;;;;;;;24.15;54.69;101158.81;4954154;29;20028;-96
2023/07/16 09:50:11;;;;;;;11.43;4.30;;;;;;;24.19;53.18;101135.09;4944361;29;20275;-96
2023/07/16 09:52:36;;;;;;;10.05;4.30;;;;;;;24.39;54.06;101162.66;4943104;29;20024;-95
2023/07/16 09:55:03;;;;;;;7.72;4.05;;;;;;;24.26;52.98;101132.56;4945492;29;20039;-96
2023/07/16 09:57:37;;;;;;;5.78;4.00;;;;;;;24.50;52.33;101172.81;4945214;29;20028;-96
2023/07/16 10:00:11;;;;;;;6.73;3.70;;;;;;;24.09;51.10;101128.13;4946360;29;20066;-95
2023/07/16 10:02:39;;;;;;;7.53;4.00;;;;;;;23.84;52.36;101141.00;4944057;29;20698;-96
2023/07/16 10:05:26;;;;;;;8.98;3.60;;;;;;;23.83;53.59;101148.38;4945866;29;20487;-96
2023/07/16 10:07:59;;;;;;;7.50;3.70;;;;;;;24.38;53.11;101174.75;4941313;29;20032;-96
2023/07/16 10:10:44;;;;;;;9.38;4.18;;;;;;;24.61;54.00;101172.31;4941171;29;20095;-96
2023/07/16 10:13:14;;;;;;;7.88;4.60;;;;;;;24.78;50.87;101185.00;4942075;29;20024;-96
2023/07/16 10:15:52;;;;;;;8.93;4.13;;;;;;;24.67;52.21;101176.44;4941956;29;20050;-96
2023/07/16 10:18:27;;;;;;;11.57;4.10;;;;;;;24.45;51.38;101153.09;4942540;29;20424;-96
2023/07/16 10:20:53;;;;;;;11.52;4.50;;;;;;;24.72;51.26;101135.13;4941210;29;20487;-96
2023/07/16 10:23:24;;;;;;;14.10;5.13;;;;;;;24.71;50.07;101176.56;4948378;29;20031;-96
2023/07/16 10:26:01;;;;;;;11.00;5.00;;;;;;;24.56;50.93;101156.94;4948564;29;20426;-96
2023/07/16 10:28:26;;;;;;;9.73;4.70;;;;;;;25.02;51.14;101175.06;4956086;29;20298;-96
2023/07/16 10:30:53;;;;;;;8.93;4.32;;;;;;;25.12;48.99;101168.31;4948356;29;20636;-96
2023/07/16 10:33:19;;;;;;;9.95;4.03;;;;;;;25.89;49.36;101193.84;4943609;29;20051;-96
2023/07/16 10:35:49;;;;;;;7.22;4.03;;;;;;;26.28;48.06;101211.28;4946591;29;20019;-96
2023/07/16 10:38:15;;;;;;;8.40;4.30;;;;;;;25.81;47.52;101185.44;4949605;29;20057;-96
2023/07/16 10:40:45;;;;;;;11.37;4.10;;;;;;;25.79;49.11;101178.72;4947617;29;20034;-96
2023/07/16 10:43:15;;;;;;;7.72;4.55;;;;;;;25.91;47.49;101197.06;4948958;29;20042;-96
2023/07/16 10:45:46;;;;;;;11.05;4.53;;;;;;;25.59;48.76;101199.75;4953657;29;20054;-96
2023/07/16 10:48:22;;;;;;;8.90;4.45;;;;;;;25.00;49.99;101169.19;4952728;29;20034;-96
2023/07/16 10:50:56;;;;;;;13.45;4.75;;;;;;;25.27;51.59;101192.25;4952085;29;20035;-96
2023/07/16 10:53:28;;;;;;;8.80;4.20;;;;;;;25.17;49.90;101174.34;4956131;29;20106;-96
2023/07/16 10:56:23;;;;;;;8.00;4.53;;;;;;;25.30;51.45;101180.56;4944381;29;20043;-96
2023/07/16 10:59:44;;;;;;;6.53;4.03;;;;;;;25.24;50.80;101179.22;5040971;23;20031;-96
2023/07/16 11:02:43;;;;;;;8.50;4.20;;;;;;;25.48;47.74;101183.00;4956481;28;20091;-96
2023/07/16 14:16:43;;;;;;;6.13;3.30;;;;;;;26.44;45.53;101321.16;5273579;23;20283;-96
2023/07/16 14:19:46;;;;;;;4.45;3.15;;;;;;;26.54;44.97;101310.78;4956347;28;20027;-96
2023/07/16 14:22:30;;;;;;;5.20;3.72;;;;;;;26.42;45.30;101304.25;4958752;28;20064;-96
2023/07/16 14:25:11;;;;;;;5.95;3.08;;;;;;;26.48;46.67;101298.47;5015207;23;20007;-96
2023/07/16 14:28:33;;;;;;;6.90;3.10;;;;;;;26.70;45.58;101303.31;4958204;29;20040;-96